Time;durP1;ratioP1;P1;durP2;ratioP2;P2;SDS_P1;SDS_P2;PMS_P1;PMS_P2;Temp;Humidity;BMP_temperature;BMP_pressure;BME280_temperature;BME280_humidity;BME280_pressure;Samples;Min_cycle;Max_cycle;Signal;HPM_P1;HPM_P2
2024/01/25 00:00:56;;;;;;;39.87;7.23;;;8.30;99.90;;;;;;5093686;28;20276;-48
2024/01/25 00:03:23;;;;;;;47.77;7.30;;;8.30;99.90;;;;;;5093424;28;20255;-48
2024/01/25 00:05:49;;;;;;;44.33;7.10;;;8.30;99.90;;;;;;5093232;28;20210;-47
2024/01/25 00:08:15;;;;;;;48.40;7.80;;;8.30;99.90;;;;;;5092124;28;20193;-47
2024/01/25 00:10:49;;;;;;;46.07;7.07;;;8.20;99.90;;;;;;5093201;28;20177;-48
2024/01/25 00:13:18;;;;;;;40.00;7.47;;;8.20;99.90;;;;;;5093362;28;20214;-48
2024/01/25 00:15:46;;;;;;;44.93;7.10;;;8.20;99.90;;;;;;5093516;28;20247;-45
2024/01/25 00:18:14;;;;;;;47.27;6.83;;;8.20;99.90;;;;;;5093498;28;20182;-48
2024/01/25 00:20:40;;;;;;;39.83;6.90;;;8.20;99.90;;;;;;5093330;28;20307;-45
2024/01/25 00:23:09;;;;;;;36.00;7.03;;;8.20;99.90;;;;;;5093446;28;20186;-48
2024/01/25 00:25:35;;;;;;;51.47;6.87;;;8.20;99.90;;;;;;5095866;28;20662;-47
2024/01/25 00:28:00;;;;;;;51.53;8.00;;;8.20;99.90;;;;;;5097299;28;20187;-48
2024/01/25 00:30:26;;;;;;;41.60;6.00;;;8.20;99.90;;;;;;5097687;28;20175;-48
2024/01/25 00:32:52;;;;;;;49.70;7.87;;;8.20;99.90;;;;;;5095613;28;20210;-47
2024/01/25 00:35:17;;;;;;;42.57;6.83;;;8.20;99.90;;;;;;5096961;28;20536;-48
2024/01/25 00:37:46;;;;;;;38.47;7.60;;;8.20;99.90;;;;;;5097315;28;20214;-48
2024/01/25 00:40:13;;;;;;;48.67;9.23;;;8.20;99.90;;;;;;5096504;28;20195;-49
2024/01/25 00:42:43;;;;;;;40.60;6.93;;;8.10;99.90;;;;;;5096954;28;20182;-47
2024/01/25 00:45:10;;;;;;;46.03;8.07;;;8.10;99.90;;;;;;5097645;28;20631;-47
2024/01/25 00:47:36;;;;;;;48.63;8.07;;;8.10;99.90;;;;;;5096748;28;20166;-47
2024/01/25 00:50:02;;;;;;;46.10;7.30;;;8.10;99.90;;;;;;5096886;28;20175;-47
2024/01/25 00:52:28;;;;;;;47.17;7.30;;;8.10;99.90;;;;;;5096784;28;20175;-48
2024/01/25 00:54:54;;;;;;;37.93;7.33;;;8.20;99.90;;;;;;5096644;28;20565;-47
2024/01/25 00:57:20;;;;;;;40.20;7.23;;;8.10;99.90;;;;;;5096877;28;20192;-46
2024/01/25 00:59:48;;;;;;;38.07;6.73;;;8.20;99.90;;;;;;5097338;28;20179;-48
2024/01/25 01:02:15;;;;;;;45.20;6.73;;;8.10;99.90;;;;;;5096472;28;20643;-48
2024/01/25 01:04:47;;;;;;;40.77;7.20;;;8.20;99.90;;;;;;5095423;28;20601;-47
2024/01/25 01:07:12;;;;;;;47.37;7.07;;;8.20;99.90;;;;;;5096450;28;20230;-47
2024/01/25 01:09:38;;;;;;;43.13;7.40;;;8.10;99.90;;;;;;5096427;28;20191;-47
2024/01/25 01:12:03;;;;;;;37.93;5.93;;;8.20;99.90;;;;;;5096689;28;20180;-46
2024/01/25 01:14:29;;;;;;;36.80;6.57;;;8.10;99.90;;;;;;5096242;28;20207;-47
2024/01/25 01:16:55;;;;;;;36.27;6.20;;;8.10;99.90;;;;;;5096479;28;20581;-48
2024/01/25 01:19:24;;;;;;;38.43;7.17;;;8.10;99.90;;;;;;5094876;28;20186;-50
2024/01/25 01:21:49;;;;;;;46.27;6.47;;;8.00;99.90;;;;;;5096339;28;20176;-48
2024/01/25 01:24:15;;;;;;;41.13;7.37;;;8.00;99.90;;;;;;5094707;28;20571;-48
2024/01/25 01:26:42;;;;;;;35.17;6.77;;;8.00;99.90;;;;;;5096032;28;20689;-46
2024/01/25 01:29:08;;;;;;;39.47;7.83;;;8.00;99.90;;;;;;5095949;28;20190;-47
2024/01/25 01:31:33;;;;;;;32.87;5.67;;;7.90;99.90;;;;;;5096194;28;20655;-48
2024/01/25 01:34:05;;;;;;;48.47;8.07;;;7.90;99.90;;;;;;5096115;28;20721;-48
2024/01/25 01:36:31;;;;;;;44.63;7.07;;;7.80;99.90;;;;;;5095215;28;20570;-47
2024/01/25 01:38:56;;;;;;;37.70;7.60;;;7.80;99.90;;;;;;5096087;28;20179;-47
2024/01/25 01:41:22;;;;;;;46.60;6.83;;;7.70;99.90;;;;;;5094399;28;20577;-47
2024/01/25 01:43:51;;;;;;;33.73;7.03;;;7.70;99.90;;;;;;5094813;28;20270;-48
2024/01/25 01:46:39;;;;;;;40.90;6.90;;;7.60;99.90;;;;;;5095761;28;20766;-46
2024/01/25 01:49:08;;;;;;;42.10;7.43;;;7.60;99.90;;;;;;5095978;28;20165;-48
2024/01/25 01:51:34;;;;;;;50.33;6.70;;;7.50;99.90;;;;;;5095972;28;20187;-49
2024/01/25 01:54:02;;;;;;;40.77;7.43;;;7.50;99.90;;;;;;5095953;28;20263;-48
2024/01/25 01:56:29;;;;;;;37.87;7.53;;;7.50;99.90;;;;;;5095799;28;20193;-42
2024/01/25 01:58:57;;;;;;;52.77;7.50;;;7.50;99.90;;;;;;5095809;28;20229;-42
2024/01/25 02:01:24;;;;;;;44.30;7.73;;;7.40;99.90;;;;;;5095501;28;20177;-45
2024/01/25 02:03:50;;;;;;;44.07;6.80;;;7.40;99.90;;;;;;5095319;28;20538;-40
2024/01/25 02:06:15;;;;;;;52.20;8.40;;;7.40;99.90;;;;;;5095223;28;20203;-44
2024/01/25 02:08:42;;;;;;;41.50;7.07;;;7.40;99.90;;;;;;5095501;28;20191;-41
2024/01/25 02:11:08;;;;;;;48.83;7.80;;;7.30;99.90;;;;;;5094045;28;20232;-43
2024/01/25 02:13:35;;;;;;;37.10;7.03;;;7.30;99.90;;;;;;5093911;28;20214;-43
2024/01/25 02:16:01;;;;;;;40.60;6.83;;;7.30;99.90;;;;;;5095032;28;20195;-42
2024/01/25 02:18:27;;;;;;;41.57;6.80;;;7.30;99.90;;;;;;5093857;28;20662;-43
2024/01/25 02:20:55;;;;;;;41.77;6.77;;;7.30;99.90;;;;;;5094990;28;20256;-42
2024/01/25 02:23:21;;;;;;;42.00;7.57;;;7.30;99.90;;;;;;5095239;28;20193;-46
2024/01/25 02:25:46;;;;;;;38.60;6.60;;;7.20;99.90;;;;;;5093846;28;20587;-43
2024/01/25 02:28:15;;;;;;;36.83;6.80;;;7.20;99.90;;;;;;5094727;28;20713;-42
2024/01/25 02:30:41;;;;;;;33.13;6.70;;;7.20;99.90;;;;;;5093681;28;20195;-41
2024/01/25 02:33:06;;;;;;;42.90;7.30;;;7.20;99.90;;;;;;5093371;28;20210;-44
2024/01/25 02:35:33;;;;;;;48.90;7.27;;;7.10;99.90;;;;;;5094579;28;20662;-44
2024/01/25 02:37:59;;;;;;;40.50;6.83;;;7.10;99.90;;;;;;5094595;28;20179;-43
2024/01/25 02:40:25;;;;;;;39.70;7.77;;;7.10;99.90;;;;;;5093763;28;20175;-43
2024/01/25 02:42:53;;;;;;;42.00;6.87;;;7.00;99.90;;;;;;5094937;28;20194;-42
2024/01/25 02:45:20;;;;;;;45.00;7.27;;;7.00;99.90;;;;;;5094679;28;20242;-44
2024/01/25 02:47:48;;;;;;;41.53;7.30;;;7.00;99.90;;;;;;5093153;28;20210;-43
2024/01/25 02:50:14;;;;;;;44.70;6.93;;;7.00;99.90;;;;;;5094418;28;20178;-43
2024/01/25 02:52:42;;;;;;;37.43;7.97;;;7.00;99.90;;;;;;5093424;28;20182;-44
2024/01/25 02:55:18;;;;;;;37.33;7.53;;;7.00;99.90;;;;;;5093854;28;20193;-42
2024/01/25 02:57:43;;;;;;;33.97;6.70;;;6.90;99.90;;;;;;5094691;28;20208;-43
2024/01/25 03:00:09;;;;;;;48.97;8.13;;;6.90;99.90;;;;;;5094715;28;20183;-40
2024/01/25 03:02:35;;;;;;;36.83;7.93;;;6.90;99.90;;;;;;5094232;28;20183;-40
2024/01/25 03:05:01;;;;;;;52.20;7.70;;;6.80;99.90;;;;;;5094222;28;20193;-43
2024/01/25 03:07:26;;;;;;;38.40;7.30;;;6.80;99.90;;;;;;5092915;28;20613;-42
2024/01/25 03:09:53;;;;;;;44.30;7.70;;;6.80;99.90;;;;;;5094094;28;20174;-43
2024/01/25 03:12:20;;;;;;;54.13;8.40;;;6.80;99.90;;;;;;5093989;28;20531;-42
2024/01/25 03:14:49;;;;;;;34.33;6.20;;;6.80;99.90;;;;;;5093114;28;20205;-44
2024/01/25 03:17:14;;;;;;;37.10;6.97;;;6.80;99.90;;;;;;5094177;28;20191;-44
2024/01/25 03:19:40;;;;;;;32.57;6.30;;;6.70;99.90;;;;;;5094240;28;20219;-42
2024/01/25 03:22:05;;;;;;;39.53;6.97;;;6.70;99.90;;;;;;5092470;28;20179;-43
2024/01/25 03:24:32;;;;;;;42.77;7.80;;;6.70;99.90;;;;;;5094146;28;20186;-42
2024/01/25 03:27:04;;;;;;;41.53;6.73;;;6.60;99.90;;;;;;5092870;28;20324;-43
2024/01/25 03:29:29;;;;;;;52.43;8.60;;;6.60;99.90;;;;;;5093708;28;20187;-42
2024/01/25 03:31:55;;;;;;;43.87;7.47;;;6.60;99.90;;;;;;5094057;28;20175;-44
2024/01/25 03:34:21;;;;;;;44.07;7.43;;;6.60;99.90;;;;;;5093939;28;20260;-42
2024/01/25 03:36:47;;;;;;;38.63;6.57;;;6.60;99.90;;;;;;5093554;28;20650;-43
2024/01/25 03:39:13;;;;;;;36.10;7.80;;;6.60;99.90;;;;;;5093492;28;20241;-43
2024/01/25 03:41:38;;;;;;;49.00;7.67;;;6.50;99.90;;;;;;5093925;28;20163;-44
2024/01/25 03:44:04;;;;;;;36.40;6.63;;;6.50;99.90;;;;;;5093584;28;20731;-43
2024/01/25 03:46:31;;;;;;;40.80;7.00;;;6.50;99.90;;;;;;5093556;28;20195;-44
2024/01/25 03:48:56;;;;;;;44.43;7.13;;;6.40;99.90;;;;;;5093491;28;20175;-41
2024/01/25 03:51:23;;;;;;;54.63;7.90;;;6.50;99.90;;;;;;5093431;28;20228;-42
2024/01/25 03:53:49;;;;;;;48.23;6.27;;;6.40;99.90;;;;;;5092253;28;20195;-41
2024/01/25 03:56:17;;;;;;;45.97;6.67;;;6.40;99.90;;;;;;5093362;28;20282;-40
2024/01/25 03:58:43;;;;;;;47.23;8.00;;;6.40;99.90;;;;;;5092668;28;20179;-41
2024/01/25 04:01:09;;;;;;;47.50;6.60;;;6.40;99.90;;;;;;5100178;28;20534;-42
2024/01/25 04:03:35;;;;;;;40.53;6.27;;;6.30;99.90;;;;;;5099443;28;20174;-41
2024/01/25 04:06:07;;;;;;;35.63;6.27;;;6.30;99.90;;;;;;5099993;28;20557;-41
2024/01/25 04:08:32;;;;;;;36.23;6.83;;;6.20;99.90;;;;;;5098916;28;20257;-42
2024/01/25 04:10:58;;;;;;;47.90;7.30;;;6.20;99.90;;;;;;5100347;28;20661;-43
2024/01/25 04:13:23;;;;;;;38.17;7.40;;;6.20;99.90;;;;;;5099065;28;20202;-47
2024/01/25 04:15:50;;;;;;;44.87;6.83;;;6.10;99.90;;;;;;5099896;28;20672;-49
2024/01/25 04:18:16;;;;;;;34.17;6.17;;;6.10;99.90;;;;;;5100274;28;20610;-50
2024/01/25 04:20:54;;;;;;;35.43;6.47;;;6.10;99.90;;;;;;5099951;28;20258;-46
2024/01/25 04:23:19;;;;;;;33.67;6.23;;;6.00;99.90;;;;;;5099051;28;20605;-48
2024/01/25 04:25:45;;;;;;;34.47;6.87;;;6.00;99.90;;;;;;5100076;28;20198;-49
2024/01/25 04:28:11;;;;;;;37.37;6.67;;;5.90;99.90;;;;;;5099889;28;20673;-46
2024/01/25 04:30:37;;;;;;;27.30;5.87;;;5.90;99.90;;;;;;5100104;28;20183;-48
2024/01/25 04:33:14;;;;;;;33.23;5.93;;;5.80;99.90;;;;;;5099709;28;20201;-47
2024/01/25 04:35:40;;;;;;;38.33;7.00;;;5.80;99.90;;;;;;5099925;28;20611;-47
2024/01/25 04:38:06;;;;;;;30.70;5.90;;;5.70;99.90;;;;;;5099783;28;20248;-47
2024/01/25 04:40:31;;;;;;;43.13;7.03;;;5.70;99.90;;;;;;5101136;28;20470;-48
2024/01/25 04:42:58;;;;;;;34.00;6.20;;;5.70;99.90;;;;;;5099992;28;20209;-46
2024/01/25 04:45:24;;;;;;;36.23;6.67;;;5.60;99.90;;;;;;5099959;28;20186;-48
2024/01/25 04:47:52;;;;;;;34.37;6.90;;;5.60;99.90;;;;;;5099944;28;20180;-48
2024/01/25 04:50:18;;;;;;;32.57;6.60;;;5.50;99.90;;;;;;5098544;28;20715;-47
2024/01/25 04:52:44;;;;;;;27.80;5.97;;;5.40;99.90;;;;;;5099880;28;20220;-47
2024/01/25 04:55:09;;;;;;;30.27;5.57;;;5.40;99.90;;;;;;5099568;28;20228;-47
2024/01/25 04:57:35;;;;;;;27.60;5.43;;;5.30;99.90;;;;;;5099633;28;20189;-46
2024/01/25 05:00:01;;;;;;;39.33;6.50;;;5.20;99.90;;;;;;5099573;28;20182;-48
2024/01/25 05:02:30;;;;;;;37.43;6.90;;;5.20;99.90;;;;;;5099590;28;20174;-49
2024/01/25 05:04:55;;;;;;;29.50;6.33;;;5.10;99.90;;;;;;5099708;28;20177;-48
2024/01/25 05:07:22;;;;;;;36.20;5.43;;;5.10;99.90;;;;;;5099475;28;20594;-48
2024/01/25 05:09:47;;;;;;;39.73;5.63;;;5.00;99.90;;;;;;5098656;28;20208;-48
2024/01/25 05:12:13;;;;;;;32.80;6.87;;;4.90;99.90;;;;;;5095379;28;20178;-47
2024/01/25 05:14:48;;;;;;;33.77;6.47;;;4.90;99.90;;;;;;5096178;28;20263;-47
2024/01/25 05:17:13;;;;;;;30.40;5.83;;;4.90;99.90;;;;;;5096477;28;20598;-47
2024/01/25 05:19:39;;;;;;;41.83;8.17;;;4.90;99.90;;;;;;5096499;28;20189;-47
2024/01/25 05:22:07;;;;;;;30.70;6.73;;;4.90;99.90;;;;;;5096616;28;20182;-46
2024/01/25 05:24:33;;;;;;;32.93;6.27;;;4.90;99.90;;;;;;5096040;28;20209;-48
2024/01/25 05:26:59;;;;;;;27.40;5.77;;;4.90;99.90;;;;;;5096250;28;20206;-48
2024/01/25 05:29:29;;;;;;;29.80;5.70;;;4.80;99.90;;;;;;5094824;28;20328;-47
2024/01/25 05:31:55;;;;;;;32.57;6.00;;;4.80;99.90;;;;;;5096292;28;20654;-46
2024/01/25 05:34:22;;;;;;;31.77;6.03;;;4.80;99.90;;;;;;5096056;28;20213;-48
2024/01/25 05:36:47;;;;;;;37.50;5.83;;;4.80;99.90;;;;;;5096022;28;20194;-48
2024/01/25 05:39:13;;;;;;;34.53;6.70;;;4.80;99.90;;;;;;5095825;28;20246;-46
2024/01/25 05:41:40;;;;;;;36.20;6.90;;;4.80;99.90;;;;;;5095801;28;20188;-48
2024/01/25 05:44:09;;;;;;;26.07;5.40;;;4.80;99.90;;;;;;5094715;28;20206;-46
2024/01/25 05:46:34;;;;;;;28.60;5.60;;;4.70;99.90;;;;;;5095787;28;20626;-48
2024/01/25 05:49:00;;;;;;;38.50;5.93;;;4.70;99.90;;;;;;5095610;28;20193;-46
2024/01/25 05:51:25;;;;;;;36.63;7.00;;;4.70;99.90;;;;;;5095848;28;20177;-47
2024/01/25 05:53:51;;;;;;;37.73;6.47;;;4.70;99.90;;;;;;5095444;28;20274;-46
2024/01/25 05:56:17;;;;;;;30.53;5.73;;;4.60;99.90;;;;;;5094889;28;20280;-47
2024/01/25 05:58:45;;;;;;;27.27;7.00;;;4.60;99.90;;;;;;5095600;28;20582;-47
2024/01/25 06:04:33;;;;;;;36.53;5.93;;;4.60;99.90;;;;;;5095350;28;20243;-48
2024/01/25 06:07:02;;;;;;;36.33;6.60;;;4.60;99.90;;;;;;5095154;28;20189;-47
2024/01/25 06:09:28;;;;;;;37.60;6.53;;;4.60;99.90;;;;;;5096128;28;20190;-47
2024/01/25 06:11:54;;;;;;;32.83;5.73;;;4.60;99.90;;;;;;5095247;28;20260;-46
2024/01/25 06:14:20;;;;;;;42.43;7.33;;;4.60;99.90;;;;;;5094778;28;20210;-46
2024/01/25 06:16:45;;;;;;;34.40;6.80;;;4.50;99.90;;;;;;5077543;28;20210;-46
2024/01/25 06:19:11;;;;;;;31.33;5.83;;;4.50;99.90;;;;;;5095300;28;20211;-46
2024/01/25 06:21:37;;;;;;;32.67;6.27;;;4.50;99.90;;;;;;5094215;28;20197;-46
2024/01/25 06:24:04;;;;;;;36.53;6.53;;;4.50;99.90;;;;;;5094793;28;20195;-47
2024/01/25 06:26:32;;;;;;;35.50;7.17;;;4.40;99.90;;;;;;5094803;28;20197;-48
2024/01/25 06:28:57;;;;;;;48.97;7.00;;;4.40;99.90;;;;;;5094523;28;20657;-48
2024/01/25 06:31:26;;;;;;;32.13;5.90;;;4.40;99.90;;;;;;5093684;28;20190;-48
2024/01/25 06:33:52;;;;;;;38.10;6.23;;;4.50;99.90;;;;;;5093698;28;20565;-47
2024/01/25 06:36:24;;;;;;;35.13;6.73;;;4.40;99.90;;;;;;5094899;28;20202;-47
2024/01/25 06:38:49;;;;;;;35.20;6.23;;;4.40;99.90;;;;;;5095041;28;20251;-46
2024/01/25 06:41:16;;;;;;;39.70;6.50;;;4.40;99.90;;;;;;5094693;28;20212;-48
2024/01/25 06:43:42;;;;;;;41.10;7.03;;;4.40;99.90;;;;;;5094659;28;20222;-47
2024/01/25 06:46:08;;;;;;;37.70;6.53;;;4.40;99.90;;;;;;5094525;28;20198;-49
2024/01/25 06:48:36;;;;;;;34.00;6.33;;;4.40;99.90;;;;;;5095029;28;20173;-47
2024/01/25 06:51:02;;;;;;;37.57;6.83;;;4.40;99.90;;;;;;5093391;28;20161;-48
2024/01/25 06:53:28;;;;;;;38.13;7.13;;;4.40;99.90;;;;;;5094687;28;20708;-48
2024/01/25 06:55:53;;;;;;;37.70;7.10;;;4.30;99.90;;;;;;5094302;28;20197;-48
2024/01/25 06:58:20;;;;;;;38.83;6.97;;;4.30;99.90;;;;;;5093273;28;20174;-48
2024/01/25 07:00:46;;;;;;;39.27;6.27;;;4.20;99.90;;;;;;5094285;28;20199;-47
2024/01/25 07:03:14;;;;;;;26.17;5.47;;;4.20;99.90;;;;;;5094618;28;20181;-45
2024/01/25 07:05:40;;;;;;;39.83;6.80;;;4.10;99.90;;;;;;5094232;28;20251;-42
2024/01/25 07:08:12;;;;;;;28.57;5.77;;;4.00;99.90;;;;;;5094141;28;20173;-42
2024/01/25 07:10:38;;;;;;;29.30;6.40;;;3.90;99.90;;;;;;5077012;28;20209;-47
2024/01/25 07:13:04;;;;;;;28.30;5.93;;;3.90;99.90;;;;;;5094229;28;20651;-43
2024/01/25 07:15:29;;;;;;;27.20;6.40;;;3.90;99.90;;;;;;5093972;28;20295;-44
2024/01/25 07:17:57;;;;;;;29.80;6.17;;;3.80;99.90;;;;;;5094048;28;20257;-44
2024/01/25 07:20:23;;;;;;;27.27;5.33;;;3.80;99.90;;;;;;5093927;28;20187;-45
2024/01/25 07:22:49;;;;;;;24.23;5.97;;;3.70;99.90;;;;;;5092785;28;20653;-44
2024/01/25 07:25:14;;;;;;;31.87;5.90;;;3.70;99.90;;;;;;5093930;28;20193;-44
2024/01/25 07:27:47;;;;;;;24.20;5.73;;;3.60;99.90;;;;;;5094222;28;20189;-43
2024/01/25 07:30:25;;;;;;;32.23;6.10;;;3.60;99.90;;;;;;5093978;28;20253;-43
2024/01/25 07:32:51;;;;;;;23.83;5.90;;;3.50;99.90;;;;;;5094017;28;20181;-43
2024/01/25 07:35:16;;;;;;;28.83;6.40;;;3.50;99.90;;;;;;5093509;28;20218;-44
2024/01/25 07:37:42;;;;;;;39.63;6.63;;;3.50;99.90;;;;;;5093920;28;20650;-41
2024/01/25 07:40:11;;;;;;;24.03;5.87;;;3.50;99.90;;;;;;5093785;28;20250;-41
2024/01/25 07:42:37;;;;;;;30.37;5.83;;;3.40;99.90;;;;;;5076371;28;20172;-44
2024/01/25 07:45:08;;;;;;;30.53;6.47;;;3.40;99.90;;;;;;5092183;28;20670;-40
2024/01/25 07:47:34;;;;;;;35.40;7.00;;;3.50;99.90;;;;;;5094258;28;20678;-42
2024/01/25 07:50:00;;;;;;;24.43;5.73;;;3.50;99.90;;;;;;5092669;28;20192;-42
2024/01/25 07:52:26;;;;;;;26.47;6.27;;;3.50;99.90;;;;;;5093917;28;20178;-42
2024/01/25 07:54:54;;;;;;;21.50;5.37;;;3.50;99.90;;;;;;5093465;28;20606;-43
2024/01/25 07:57:23;;;;;;;32.50;7.07;;;3.50;99.90;;;;;;5093377;28;20238;-41
2024/01/25 07:59:48;;;;;;;42.30;6.97;;;3.50;99.90;;;;;;5093399;28;20234;-42
2024/01/25 08:02:14;;;;;;;40.20;7.77;;;3.60;99.90;;;;;;5093481;28;20180;-44
2024/01/25 08:04:39;;;;;;;36.93;7.53;;;3.70;99.90;;;;;;5093437;28;20327;-42
2024/01/25 08:07:05;;;;;;;40.23;6.77;;;3.90;99.90;;;;;;5092068;28;20209;-42
2024/01/25 08:09:31;;;;;;;37.53;7.67;;;4.00;99.90;;;;;;5092128;28;20188;-42
2024/01/25 08:12:02;;;;;;;43.53;7.17;;;4.20;99.90;;;;;;5092246;28;20183;-43
2024/01/25 08:14:28;;;;;;;34.20;7.43;;;4.30;99.90;;;;;;5093498;28;20268;-42
2024/01/25 08:16:55;;;;;;;37.93;7.30;;;4.40;99.90;;;;;;5093482;28;20726;-44
2024/01/25 08:19:21;;;;;;;46.30;8.70;;;4.50;99.90;;;;;;5092391;28;20647;-42
2024/01/25 08:21:47;;;;;;;35.67;7.07;;;4.60;99.90;;;;;;5092502;28;20197;-44
2024/01/25 08:24:14;;;;;;;36.43;7.23;;;4.60;99.90;;;;;;5093372;28;20177;-42
2024/01/25 08:26:39;;;;;;;40.97;8.17;;;4.70;99.90;;;;;;5093561;28;20196;-44
2024/01/25 08:29:05;;;;;;;42.10;7.27;;;4.70;99.90;;;;;;5093426;28;20191;-43
2024/01/25 08:31:30;;;;;;;51.60;7.93;;;4.80;99.90;;;;;;5093583;28;20607;-44
2024/01/25 08:33:56;;;;;;;47.97;8.23;;;4.80;99.90;;;;;;5093671;28;20666;-45
2024/01/25 08:36:22;;;;;;;48.80;8.20;;;4.80;99.90;;;;;;5092243;28;20208;-42
2024/01/25 08:38:48;;;;;;;49.13;8.27;;;4.90;99.90;;;;;;5093662;28;20181;-41
2024/01/25 08:41:15;;;;;;;48.30;8.27;;;5.00;99.90;;;;;;5094239;28;20670;-41
2024/01/25 08:43:41;;;;;;;38.60;8.47;;;5.00;99.90;;;;;;5093441;28;20588;-43
2024/01/25 08:46:08;;;;;;;62.27;8.77;;;5.10;99.90;;;;;;5094683;28;20214;-43
2024/01/25 08:48:35;;;;;;;35.53;7.90;;;5.10;99.90;;;;;;5097189;28;20276;-43
2024/01/25 08:51:04;;;;;;;45.80;8.07;;;5.20;99.90;;;;;;5097075;28;20185;-42
2024/01/25 08:53:32;;;;;;;46.80;8.30;;;5.20;99.90;;;;;;5097294;28;20303;-44
2024/01/25 08:56:01;;;;;;;59.17;9.43;;;5.30;99.90;;;;;;5096625;28;20196;-40
2024/01/25 08:58:27;;;;;;;57.60;9.07;;;5.30;99.90;;;;;;5096547;28;20191;-43
2024/01/25 09:00:53;;;;;;;49.30;9.77;;;5.40;99.90;;;;;;5096567;28;20169;-44
2024/01/25 09:03:19;;;;;;;51.83;8.87;;;5.40;99.90;;;;;;5096898;28;20180;-42
2024/01/25 09:05:45;;;;;;;45.67;9.90;;;5.50;99.90;;;;;;5096838;28;20207;-41
2024/01/25 09:08:13;;;;;;;62.23;10.57;;;5.60;99.90;;;;;;5096545;28;20188;-42
2024/01/25 09:10:39;;;;;;;57.63;10.50;;;5.60;99.90;;;;;;5096558;28;20192;-43
2024/01/25 09:13:05;;;;;;;64.83;11.47;;;5.70;99.90;;;;;;5095342;28;20253;-44
2024/01/25 09:15:31;;;;;;;62.30;11.87;;;5.80;99.90;;;;;;5096339;28;20592;-42
2024/01/25 09:17:56;;;;;;;55.60;10.10;;;5.80;99.90;;;;;;5096331;28;20243;-44
2024/01/25 09:20:22;;;;;;;48.27;11.77;;;5.90;99.90;;;;;;5094759;28;20185;-47
2024/01/25 09:22:49;;;;;;;53.40;11.70;;;5.90;99.90;;;;;;5096549;28;20260;-47
2024/01/25 09:25:14;;;;;;;60.87;13.23;;;6.00;99.90;;;;;;5096007;28;20174;-48
2024/01/25 09:27:40;;;;;;;60.83;13.40;;;6.00;99.90;;;;;;5094586;28;20199;-49
2024/01/25 09:30:08;;;;;;;63.47;14.33;;;6.10;99.90;;;;;;5097589;28;20188;-49
2024/01/25 09:32:34;;;;;;;66.07;13.63;;;6.10;99.90;;;;;;5097456;28;20173;-47
2024/01/25 09:34:59;;;;;;;43.20;13.37;;;6.20;99.90;;;;;;5096756;28;20251;-43
2024/01/25 09:37:28;;;;;;;62.63;15.97;;;6.30;99.90;;;;;;5095781;28;20200;-44
2024/01/25 09:39:53;;;;;;;68.20;16.30;;;6.30;99.90;;;;;;5095856;28;20253;-43
2024/01/25 09:42:22;;;;;;;66.33;15.97;;;6.40;99.90;;;;;;5095859;28;20695;-45
2024/01/25 09:44:48;;;;;;;71.67;17.60;;;6.40;99.90;;;;;;5095784;28;20645;-42
2024/01/25 09:47:16;;;;;;;83.70;17.33;;;6.40;99.90;;;;;;5095948;28;20226;-40
2024/01/25 09:49:48;;;;;;;65.20;18.37;;;6.50;99.90;;;;;;5095919;28;20182;-43
2024/01/25 09:52:16;;;;;;;74.97;19.53;;;6.50;99.90;;;;;;5096256;28;20186;-43
2024/01/25 09:54:42;;;;;;;74.27;18.43;;;6.60;99.90;;;;;;5094281;28;20237;-44
2024/01/25 09:57:18;;;;;;;75.53;18.83;;;6.70;99.90;;;;;;5094838;28;20283;-43
2024/01/25 09:59:45;;;;;;;74.47;17.73;;;6.70;99.90;;;;;;5095530;28;20602;-43
2024/01/25 10:02:13;;;;;;;62.27;16.97;;;6.80;99.90;;;;;;5095754;28;20254;-44
2024/01/25 10:04:39;;;;;;;84.20;19.20;;;6.80;99.90;;;;;;5095931;28;20672;-42
2024/01/25 10:07:07;;;;;;;72.90;19.30;;;6.90;99.90;;;;;;5095388;28;20201;-42
2024/01/25 10:09:41;;;;;;;74.63;18.33;;;6.90;99.90;;;;;;5095378;28;20189;-42
2024/01/25 10:12:08;;;;;;;96.20;19.97;;;7.00;99.90;;;;;;5095564;28;20603;-45
2024/01/25 10:14:34;;;;;;;80.87;19.50;;;7.00;99.90;;;;;;5095216;28;20658;-44
2024/01/25 10:17:00;;;;;;;81.73;19.83;;;7.00;99.90;;;;;;5094180;28;20201;-43
2024/01/25 10:19:26;;;;;;;73.67;18.40;;;7.10;99.90;;;;;;5094354;28;20175;-47
2024/01/25 10:21:52;;;;;;;76.53;20.93;;;7.10;99.90;;;;;;5110864;28;20179;-48
2024/01/25 10:24:18;;;;;;;80.97;20.03;;;7.20;99.90;;;;;;5095332;28;20182;-46
2024/01/25 10:26:43;;;;;;;87.47;20.83;;;7.30;99.90;;;;;;5095017;28;20203;-48
2024/01/25 10:29:09;;;;;;;76.60;18.93;;;7.30;99.90;;;;;;5094889;28;20195;-47
2024/01/25 10:31:40;;;;;;;104.13;22.40;;;7.40;99.90;;;;;;5095623;28;20269;-46
2024/01/25 10:34:11;;;;;;;82.70;19.50;;;7.40;99.90;;;;;;5093643;28;20215;-48
2024/01/25 10:36:39;;;;;;;94.73;20.73;;;7.50;99.90;;;;;;5095061;28;20199;-48
2024/01/25 10:39:07;;;;;;;91.03;19.80;;;7.50;99.90;;;;;;5094950;28;20179;-49
2024/01/25 10:41:36;;;;;;;78.83;20.47;;;7.50;99.90;;;;;;5094706;28;20772;-48
2024/01/25 10:44:03;;;;;;;75.63;19.00;;;7.60;99.90;;;;;;5094856;28;20667;-47
2024/01/25 10:46:29;;;;;;;92.17;19.07;;;7.60;99.90;;;;;;5094400;28;20206;-47
2024/01/25 10:49:01;;;;;;;69.20;18.33;;;7.70;99.90;;;;;;5094474;28;20216;-47
2024/01/25 10:51:29;;;;;;;77.33;19.10;;;7.70;99.90;;;;;;5094585;28;20155;-48
2024/01/25 10:53:55;;;;;;;64.27;17.33;;;7.80;99.90;;;;;;5094694;28;20617;-49
2024/01/25 10:56:21;;;;;;;71.17;18.47;;;7.90;99.90;;;;;;5094388;28;20194;-48
2024/01/25 10:58:47;;;;;;;81.80;18.80;;;7.90;99.90;;;;;;5094472;28;20228;-47
2024/01/25 11:01:14;;;;;;;82.63;19.47;;;8.00;99.90;;;;;;5094398;28;20221;-48
2024/01/25 11:03:42;;;;;;;80.10;18.07;;;8.10;99.90;;;;;;5095016;28;20200;-47
2024/01/25 11:06:09;;;;;;;73.40;18.17;;;8.10;99.90;;;;;;5093081;28;20727;-48
2024/01/25 11:08:38;;;;;;;73.03;16.13;;;8.20;99.90;;;;;;5093503;28;20186;-49
2024/01/25 11:11:07;;;;;;;65.70;17.30;;;8.40;99.90;;;;;;5094459;28;20197;-48
2024/01/25 11:13:33;;;;;;;57.60;16.00;;;8.50;99.90;;;;;;5094257;28;20719;-50
2024/01/25 11:15:58;;;;;;;64.73;17.47;;;8.50;99.90;;;;;;5094374;28;20193;-46
2024/01/25 11:18:28;;;;;;;68.10;17.60;;;8.60;99.90;;;;;;5094314;28;20241;-47
2024/01/25 11:21:00;;;;;;;58.20;15.23;;;8.60;99.90;;;;;;5093896;28;20185;-47
2024/01/25 11:23:32;;;;;;;57.77;16.40;;;8.70;99.90;;;;;;5094440;28;20174;-47
2024/01/25 11:26:01;;;;;;;63.83;16.63;;;8.80;99.90;;;;;;5094189;28;20235;-48
2024/01/25 11:28:27;;;;;;;57.90;16.60;;;8.80;99.90;;;;;;5093596;28;20201;-47
2024/01/25 11:30:57;;;;;;;56.00;15.83;;;8.90;99.90;;;;;;5092933;28;20234;-48
2024/01/25 11:33:23;;;;;;;57.57;15.40;;;8.90;99.90;;;;;;5093605;28;20193;-48
2024/01/25 11:36:05;;;;;;;52.53;14.63;;;9.00;99.90;;;;;;5093613;28;20678;-46
2024/01/25 11:38:36;;;;;;;49.00;13.87;;;9.10;99.90;;;;;;5091123;28;20182;-47
2024/01/25 11:41:02;;;;;;;45.23;14.10;;;9.10;99.90;;;;;;5092922;28;20189;-46
2024/01/25 11:43:27;;;;;;;48.10;13.70;;;9.20;99.90;;;;;;5093419;28;20509;-49
2024/01/25 11:45:53;;;;;;;40.37;12.40;;;9.30;99.90;;;;;;5093542;28;20224;-47
2024/01/25 11:48:19;;;;;;;47.83;13.30;;;9.30;99.90;;;;;;5093511;28;20187;-47
2024/01/25 11:50:54;;;;;;;49.70;12.43;;;9.40;99.90;;;;;;5093264;28;20183;-48
2024/01/25 11:53:19;;;;;;;50.93;12.90;;;9.50;99.90;;;;;;5093684;28;20672;-47
2024/01/25 11:55:45;;;;;;;40.73;11.80;;;9.50;99.90;;;;;;5093351;28;20198;-48
2024/01/25 11:58:10;;;;;;;38.50;10.93;;;9.60;99.90;;;;;;5093360;28;20185;-47
2024/01/25 12:00:36;;;;;;;47.70;12.30;;;9.60;99.90;;;;;;5093638;28;20183;-48
2024/01/25 12:03:05;;;;;;;54.30;12.20;;;9.70;99.90;;;;;;5093353;28;20209;-48
2024/01/25 12:05:31;;;;;;;44.20;12.20;;;9.70;99.90;;;;;;5093194;28;20201;-47
2024/01/25 12:07:57;;;;;;;36.90;10.97;;;9.80;99.90;;;;;;5093562;28;20220;-49
2024/01/25 12:10:25;;;;;;;45.97;11.23;;;10.00;99.90;;;;;;5093568;28;20202;-49
2024/01/25 12:12:51;;;;;;;38.13;11.63;;;10.00;99.90;;;;;;5093152;28;20235;-47
2024/01/25 12:15:17;;;;;;;42.63;10.47;;;10.10;99.90;;;;;;5093425;28;20155;-47
2024/01/25 12:17:45;;;;;;;33.37;9.80;;;10.10;99.90;;;;;;5093268;28;20174;-47
2024/01/25 12:20:11;;;;;;;39.37;11.30;;;10.20;99.90;;;;;;5093677;28;20224;-48
2024/01/25 12:22:37;;;;;;;33.63;11.27;;;10.30;99.90;;;;;;5097369;28;20166;-47
2024/01/25 12:25:07;;;;;;;37.20;10.77;;;10.30;99.90;;;;;;5097359;28;20541;-47
2024/01/25 12:27:33;;;;;;;40.43;10.83;;;10.40;99.90;;;;;;5097137;28;20191;-47
2024/01/25 12:30:00;;;;;;;44.00;10.00;;;10.50;99.90;;;;;;5097161;28;20210;-48
2024/01/25 12:32:29;;;;;;;35.43;8.90;;;10.50;99.90;;;;;;5097194;28;20171;-49
2024/01/25 12:35:03;;;;;;;37.30;9.77;;;10.60;99.90;;;;;;5097307;28;20309;-48
2024/01/25 12:37:29;;;;;;;34.50;9.00;;;10.60;99.90;;;;;;5097287;28;20278;-49
2024/01/25 12:39:55;;;;;;;38.03;9.23;;;10.60;99.90;;;;;;5097035;28;20658;-48
2024/01/25 12:42:21;;;;;;;26.00;8.73;;;10.80;99.90;;;;;;5096917;28;20641;-49
2024/01/25 12:44:54;;;;;;;40.97;8.87;;;10.90;99.90;;;;;;5096773;28;20194;-47